Time;durP1;ratioP1;P1;durP2;ratioP2;P2;SDS_P1;SDS_P2;PMS_P1;PMS_P2;Temp;Humidity;BMP_temperature;BMP_pressure;BME280_temperature;BME280_humidity;BME280_pressure;Samples;Min_cycle;Max_cycle;Signal;HPM_P1;HPM_P2
2022/05/29 00:01:12;;;;;;;;;;;15.60;46.70;;;;;;5056469;28;19948;-86
2022/05/29 00:03:37;;;;;;;;;;;15.70;46.60;;;;;;5039616;28;19916;-86
2022/05/29 00:06:05;;;;;;;;;;;15.70;46.70;;;;;;5039617;28;19919;-86
2022/05/29 00:08:32;;;;;;;;;;;15.70;46.70;;;;;;5039422;28;19913;-85
2022/05/29 00:10:58;;;;;;;;;;;15.70;46.80;;;;;;5057357;28;19913;-86
2022/05/29 00:13:24;;;;;;;;;;;15.70;47.00;;;;;;5040478;28;19924;-85
2022/05/29 00:15:51;;;;;;;;;;;15.60;47.50;;;;;;5056983;28;19912;-85
2022/05/29 00:18:19;;;;;;;;;;;15.60;47.70;;;;;;5058649;28;19940;-86
2022/05/29 00:20:49;;;;;;;;;;;15.50;48.00;;;;;;5056315;28;19919;-86
2022/05/29 00:23:15;;;;;;;;;;;15.50;48.00;;;;;;5039811;28;19917;-85
2022/05/29 00:25:43;;;;;;;;;;;15.50;48.40;;;;;;5057138;28;19958;-85
2022/05/29 00:28:09;;;;;;;;;;;15.40;48.80;;;;;;5040193;28;20289;-86
2022/05/29 00:30:34;;;;;;;;;;;15.40;48.90;;;;;;5040634;28;19917;-85
2022/05/29 00:32:59;;;;;;;;;;;15.40;48.90;;;;;;5056836;28;20331;-86
2022/05/29 00:35:27;;;;;;;;;;;15.40;48.90;;;;;;5055787;28;19927;-86
2022/05/29 00:37:52;;;;;;;;;;;15.40;48.90;;;;;;5038792;28;20265;-86
2022/05/29 00:40:24;;;;;;;;;;;15.50;48.80;;;;;;5056701;28;19927;-86
2022/05/29 00:42:50;;;;;;;;;;;15.50;48.80;;;;;;5056445;28;19909;-86
2022/05/29 00:45:18;;;;;;;;;;;15.50;48.70;;;;;;5056365;28;20070;-86
2022/05/29 00:47:43;;;;;;;;;;;15.50;48.80;;;;;;5038505;28;19951;-85
2022/05/29 00:50:09;;;;;;;;;;;15.50;49.40;;;;;;5056091;28;19963;-86
2022/05/29 00:52:34;;;;;;;;;;;15.40;50.50;;;;;;5038222;28;19916;-85
2022/05/29 00:55:09;;;;;;;;;;;15.30;51.10;;;;;;5055779;28;20300;-85
2022/05/29 00:57:41;;;;;;;;;;;15.30;51.70;;;;;;5055859;28;19917;-85
2022/05/29 01:00:16;;;;;;;;;;;15.20;52.70;;;;;;5037792;28;19913;-85
2022/05/29 01:02:42;;;;;;;;;;;15.20;53.50;;;;;;5055289;28;19982;-86
2022/05/29 01:05:09;;;;;;;;;;;15.20;54.30;;;;;;5037597;28;19917;-86
2022/05/29 01:07:35;;;;;;;;;;;15.20;54.90;;;;;;5037236;28;19913;-86
2022/05/29 01:10:01;;;;;;;;;;;15.20;55.40;;;;;;5055419;28;19913;-86
2022/05/29 01:12:33;;;;;;;;;;;15.20;55.80;;;;;;5037342;28;19916;-86
2022/05/29 01:15:08;;;;;;;;;;;15.20;56.20;;;;;;5055419;28;20296;-86
2022/05/29 01:17:49;;;;;;;;;;;15.20;56.70;;;;;;5055010;28;19913;-85
2022/05/29 01:20:18;;;;;;;;;;;15.10;56.90;;;;;;5037273;28;19931;-85
2022/05/29 01:22:43;;;;;;;;;;;15.10;57.20;;;;;;5037643;28;19955;-85
2022/05/29 01:25:19;;;;;;;;;;;15.10;57.40;;;;;;5037373;28;19963;-87
2022/05/29 01:28:03;;;;;;;;;;;15.10;57.60;;;;;;5037860;28;19920;-86
2022/05/29 01:30:31;;;;;;;;;;;15.10;57.80;;;;;;5055804;28;19967;-86
2022/05/29 01:33:05;;;;;;;;;;;15.00;58.00;;;;;;5055052;28;19924;-86
2022/05/29 01:35:35;;;;;;;;;;;15.00;58.20;;;;;;5036978;28;19952;-86
2022/05/29 01:38:00;;;;;;;;;;;15.00;58.30;;;;;;5037400;28;19919;-86
2022/05/29 01:40:39;;;;;;;;;;;15.00;58.50;;;;;;5037279;28;19917;-85
2022/05/29 01:43:10;;;;;;;;;;;15.00;58.50;;;;;;5037218;28;20003;-86
2022/05/29 01:45:54;;;;;;;;;;;15.00;58.60;;;;;;5037172;28;19999;-85
2022/05/29 01:48:35;;;;;;;;;;;15.00;58.70;;;;;;5055679;28;19972;-86
2022/05/29 01:51:10;;;;;;;;;;;15.00;58.90;;;;;;5037122;28;19939;-86
2022/05/29 01:53:39;;;;;;;;;;;14.90;59.00;;;;;;5036898;28;19927;-86
2022/05/29 01:56:25;;;;;;;;;;;14.90;59.10;;;;;;5055377;28;20368;-86
2022/05/29 01:58:54;;;;;;;;;;;14.90;59.20;;;;;;5055498;28;19909;-86
2022/05/29 02:01:22;;;;;;;;;;;15.00;59.20;;;;;;5037830;28;20410;-86
2022/05/29 02:03:50;;;;;;;;;;;15.00;59.30;;;;;;5037679;28;19909;-86
2022/05/29 02:06:19;;;;;;;;;;;15.00;59.40;;;;;;5055992;28;19924;-86
2022/05/29 02:08:50;;;;;;;;;;;15.00;59.50;;;;;;5037379;28;20311;-87
2022/05/29 02:11:26;;;;;;;;;;;15.00;59.50;;;;;;5037337;28;20042;-86
2022/05/29 02:14:06;;;;;;;;;;;15.00;59.40;;;;;;5037619;28;19928;-86
2022/05/29 02:16:34;;;;;;;;;;;14.90;59.30;;;;;;5037723;28;20274;-86
2022/05/29 02:19:00;;;;;;;;;;;14.80;59.20;;;;;;5038173;28;19913;-86
2022/05/29 02:21:29;;;;;;;;;;;14.70;59.00;;;;;;5055415;28;19982;-85
2022/05/29 02:23:58;;;;;;;;;;;14.70;58.80;;;;;;5037369;28;19917;-86
2022/05/29 02:26:27;;;;;;;;;;;14.50;58.60;;;;;;5037456;28;20006;-86
2022/05/29 02:28:58;;;;;;;;;;;14.40;58.30;;;;;;5020681;28;19913;-86
2022/05/29 02:31:36;;;;;;;;;;;14.30;58.10;;;;;;5055355;28;19923;-86
2022/05/29 02:34:14;;;;;;;;;;;14.20;58.10;;;;;;5055432;28;19921;-86
2022/05/29 02:36:48;;;;;;;;;;;14.00;58.20;;;;;;5055126;28;20003;-86
2022/05/29 02:39:22;;;;;;;;;;;13.90;58.40;;;;;;5055740;28;19971;-86
2022/05/29 02:41:51;;;;;;;;;;;13.90;59.00;;;;;;5037182;28;20380;-85
2022/05/29 02:44:26;;;;;;;;;;;13.90;59.70;;;;;;5036924;28;19916;-86
2022/05/29 02:46:57;;;;;;;;;;;14.00;60.30;;;;;;5036919;28;19920;-85
2022/05/29 02:49:31;;;;;;;;;;;14.10;60.70;;;;;;5040846;28;20415;-87
2022/05/29 02:51:59;;;;;;;;;;;14.20;60.90;;;;;;5039918;28;20384;-86
2022/05/29 02:54:26;;;;;;;;;;;14.30;61.00;;;;;;5040721;28;19916;-85
2022/05/29 02:56:56;;;;;;;;;;;14.30;61.00;;;;;;5040535;28;19908;-85
2022/05/29 02:59:27;;;;;;;;;;;14.30;60.90;;;;;;5058142;28;19916;-86
2022/05/29 03:02:09;;;;;;;;;;;14.40;61.00;;;;;;5040559;28;19948;-86
2022/05/29 03:04:35;;;;;;;;;;;14.50;61.10;;;;;;5058483;28;19917;-86
2022/05/29 03:07:03;;;;;;;;;;;14.50;61.00;;;;;;5058686;28;20293;-85
2022/05/29 03:09:38;;;;;;;;;;;14.60;61.00;;;;;;5039809;28;20022;-85
2022/05/29 03:12:12;;;;;;;;;;;14.60;60.90;;;;;;5039487;28;20012;-86
2022/05/29 03:14:44;;;;;;;;;;;14.60;60.70;;;;;;5039309;28;19917;-86
2022/05/29 03:17:13;;;;;;;;;;;14.50;60.60;;;;;;5056782;28;20304;-86
2022/05/29 03:19:38;;;;;;;;;;;14.50;60.80;;;;;;5040360;28;19913;-87
2022/05/29 03:22:11;;;;;;;;;;;14.50;61.00;;;;;;5040890;28;20193;-87
2022/05/29 03:24:43;;;;;;;;;;;14.40;61.10;;;;;;5059151;28;19987;-87
2022/05/29 03:27:21;;;;;;;;;;;14.40;61.10;;;;;;5041477;28;20292;-87
2022/05/29 03:30:07;;;;;;;;;;;14.30;61.10;;;;;;5041218;28;19927;-88
2022/05/29 03:32:33;;;;;;;;;;;14.20;61.10;;;;;;5059051;28;19925;-88
2022/05/29 03:34:58;;;;;;;;;;;14.20;61.20;;;;;;5057675;28;20369;-88
2022/05/29 03:37:24;;;;;;;;;;;14.20;61.40;;;;;;5057725;28;20336;-88
2022/05/29 03:39:49;;;;;;;;;;;14.30;61.50;;;;;;5057666;28;19913;-87
2022/05/29 03:42:16;;;;;;;;;;;14.30;61.60;;;;;;5040529;28;19920;-87
2022/05/29 03:44:41;;;;;;;;;;;14.40;61.70;;;;;;5058476;28;19913;-87
2022/05/29 03:47:07;;;;;;;;;;;14.40;61.70;;;;;;5056945;28;19958;-87
2022/05/29 03:49:32;;;;;;;;;;;14.50;61.70;;;;;;5040545;28;19913;-86
2022/05/29 03:51:58;;;;;;;;;;;14.50;61.70;;;;;;5057204;28;19913;-87
2022/05/29 03:54:23;;;;;;;;;;;14.50;61.70;;;;;;5057348;28;19935;-86
2022/05/29 03:56:49;;;;;;;;;;;14.60;61.70;;;;;;5057755;28;20007;-87
2022/05/29 03:59:15;;;;;;;;;;;14.60;61.70;;;;;;5058624;28;19924;-87
2022/05/29 04:01:40;;;;;;;;;;;14.70;61.70;;;;;;5049064;28;19900;-85
2022/05/29 04:04:06;;;;;;;;;;;14.70;61.80;;;;;;5049594;28;19932;-85
2022/05/29 04:06:34;;;;;;;;;;;14.80;61.80;;;;;;5058447;28;20448;-86
2022/05/29 04:14:29;;;;;;;;;;;14.90;61.90;;;;;;5058408;28;19943;-86
2022/05/29 04:16:55;;;;;;;;;;;14.90;61.90;;;;;;5057405;28;19909;-88
2022/05/29 04:19:20;;;;;;;;;;;15.00;61.90;;;;;;5039934;28;19913;-86
2022/05/29 04:21:46;;;;;;;;;;;15.00;62.00;;;;;;5057618;28;20042;-87
2022/05/29 04:24:12;;;;;;;;;;;15.00;62.00;;;;;;5056643;28;19917;-87
2022/05/29 04:26:38;;;;;;;;;;;15.00;62.10;;;;;;5039488;28;19947;-85
2022/05/29 04:29:05;;;;;;;;;;;15.00;62.10;;;;;;5039375;28;19924;-86
2022/05/29 04:31:33;;;;;;;;;;;15.10;62.20;;;;;;5057842;28;19916;-87
2022/05/29 04:33:58;;;;;;;;;;;15.10;62.20;;;;;;5057824;28;20023;-87
2022/05/29 04:36:24;;;;;;;;;;;15.10;62.20;;;;;;5058340;28;20363;-86
2022/05/29 04:38:50;;;;;;;;;;;15.10;62.40;;;;;;5039778;28;19924;-86
2022/05/29 04:41:16;;;;;;;;;;;15.20;62.50;;;;;;5039452;28;19913;-87
2022/05/29 04:43:41;;;;;;;;;;;15.20;62.40;;;;;;5039256;28;20296;-87
2022/05/29 04:46:07;;;;;;;;;;;15.20;62.50;;;;;;5057278;28;19913;-87
2022/05/29 04:48:32;;;;;;;;;;;15.30;62.50;;;;;;5056033;28;20006;-87
2022/05/29 04:50:59;;;;;;;;;;;15.30;62.40;;;;;;5057551;28;19916;-87
2022/05/29 04:53:25;;;;;;;;;;;15.40;62.40;;;;;;5039817;28;20032;-87
2022/05/29 04:55:54;;;;;;;;;;;15.40;62.30;;;;;;5039529;28;19948;-88
2022/05/29 04:58:20;;;;;;;;;;;15.50;62.40;;;;;;5038814;28;19924;-87
2022/05/29 05:00:46;;;;;;;;;;;15.50;62.60;;;;;;5055208;28;19920;-86
2022/05/29 05:03:12;;;;;;;;;;;15.60;62.70;;;;;;5038915;28;20011;-87
2022/05/29 05:05:38;;;;;;;;;;;15.70;62.70;;;;;;5057167;28;19912;-87
2022/05/29 05:08:04;;;;;;;;;;;15.80;62.80;;;;;;5055047;28;19923;-88
2022/05/29 05:10:29;;;;;;;;;;;15.80;63.10;;;;;;5037738;28;19963;-86
2022/05/29 05:12:54;;;;;;;;;;;15.90;63.20;;;;;;5057209;28;20341;-87
2022/05/29 05:15:20;;;;;;;;;;;16.00;63.50;;;;;;5056732;28;19979;-87
2022/05/29 05:17:46;;;;;;;;;;;16.10;63.50;;;;;;5057457;28;19928;-88
2022/05/29 05:20:12;;;;;;;;;;;16.20;63.50;;;;;;5057137;28;19962;-87
2022/05/29 05:22:38;;;;;;;;;;;16.30;63.30;;;;;;5057506;28;20700;-87
2022/05/29 05:25:03;;;;;;;;;;;16.40;63.10;;;;;;5057389;28;19951;-87
2022/05/29 05:27:29;;;;;;;;;;;16.50;63.00;;;;;;5056677;28;20429;-87
2022/05/29 05:29:54;;;;;;;;;;;16.50;63.20;;;;;;5038079;28;19912;-87
2022/05/29 05:32:20;;;;;;;;;;;16.70;63.30;;;;;;5056634;28;19912;-87
2022/05/29 05:34:47;;;;;;;;;;;16.80;63.30;;;;;;5056303;28;20280;-87
2022/05/29 05:37:13;;;;;;;;;;;17.00;63.20;;;;;;5054806;28;19917;-88
2022/05/29 05:39:38;;;;;;;;;;;17.20;63.30;;;;;;5038055;28;19924;-87
2022/05/29 05:42:04;;;;;;;;;;;17.30;63.20;;;;;;5038584;28;19917;-87
2022/05/29 05:44:30;;;;;;;;;;;17.50;63.30;;;;;;5038772;28;19909;-87
2022/05/29 05:46:56;;;;;;;;;;;17.70;63.40;;;;;;5056424;28;19927;-88
2022/05/29 05:49:22;;;;;;;;;;;17.80;63.10;;;;;;5056211;28;19947;-88
2022/05/29 05:51:50;;;;;;;;;;;17.90;63.10;;;;;;5038501;28;19927;-86
2022/05/29 05:54:15;;;;;;;;;;;18.00;63.30;;;;;;5056287;28;19920;-86
2022/05/29 05:56:45;;;;;;;;;;;18.20;63.30;;;;;;5055620;28;19932;-86
2022/05/29 05:59:11;;;;;;;;;;;18.30;63.00;;;;;;5038881;28;19915;-87
2022/05/29 06:01:36;;;;;;;;;;;18.40;62.50;;;;;;5056063;28;19999;-87
2022/05/29 06:04:02;;;;;;;;;;;18.50;62.20;;;;;;5037835;28;19908;-87
2022/05/29 06:06:27;;;;;;;;;;;18.60;62.10;;;;;;5054518;28;19916;-86
2022/05/29 06:08:53;;;;;;;;;;;18.70;61.70;;;;;;5055358;28;19916;-87
2022/05/29 06:11:18;;;;;;;;;;;18.70;61.50;;;;;;5055821;28;19924;-87
2022/05/29 06:13:44;;;;;;;;;;;18.80;61.80;;;;;;5055240;28;19920;-87
2022/05/29 06:16:11;;;;;;;;;;;19.00;61.80;;;;;;5055020;28;19924;-87
2022/05/29 06:18:37;;;;;;;;;;;19.10;61.60;;;;;;5053462;28;19920;-87
2022/05/29 06:21:06;;;;;;;;;;;19.20;61.80;;;;;;5054924;28;19909;-88
2022/05/29 06:23:32;;;;;;;;;;;19.30;61.60;;;;;;5055493;28;19917;-88
2022/05/29 06:26:04;;;;;;;;;;;19.30;61.20;;;;;;5055250;28;19913;-88
2022/05/29 06:28:36;;;;;;;;;;;19.40;61.00;;;;;;5055033;28;20303;-87
2022/05/29 06:31:05;;;;;;;;;;;19.40;60.90;;;;;;5037125;28;19947;-88
2022/05/29 06:33:31;;;;;;;;;;;19.30;60.80;;;;;;5055198;28;20011;-87
2022/05/29 06:36:26;;;;;;;;;;;19.30;61.00;;;;;;5037592;28;19971;-87
2022/05/29 06:38:53;;;;;;;;;;;19.20;60.80;;;;;;5013213;28;20063;-89
2022/05/29 06:41:20;;;;;;;;;;;19.00;60.50;;;;;;5038202;28;19912;-88
2022/05/29 06:43:48;;;;;;;;;;;18.80;60.60;;;;;;5059767;28;19935;-87
2022/05/29 06:46:14;;;;;;;;;;;18.70;60.60;;;;;;5045335;28;19917;-87
2022/05/29 06:48:40;;;;;;;;;;;18.60;60.20;;;;;;5042268;28;19909;-88
2022/05/29 06:51:07;;;;;;;;;;;18.50;60.30;;;;;;5043528;28;20012;-87
2022/05/29 06:53:33;;;;;;;;;;;18.40;60.60;;;;;;5063693;28;20290;-88
2022/05/29 06:55:58;;;;;;;;;;;18.30;61.10;;;;;;5045420;28;19930;-87
2022/05/29 06:58:24;;;;;;;;;;;18.30;61.40;;;;;;5044853;28;19984;-87
2022/05/29 07:09:21;;;;;;;;;;;18.20;62.20;;;;;;5062831;28;19916;-87
2022/05/29 07:11:48;;;;;;;;;;;18.20;61.80;;;;;;5061800;28;19963;-87
2022/05/29 07:14:16;;;;;;;;;;;18.20;61.70;;;;;;5045338;28;19924;-86
2022/05/29 07:16:44;;;;;;;;;;;18.10;61.70;;;;;;5063212;28;19927;-87
2022/05/29 07:19:10;;;;;;;;;;;18.10;61.70;;;;;;5041318;28;19966;-87
2022/05/29 07:21:40;;;;;;;;;;;18.00;61.70;;;;;;5054995;28;19948;-88
2022/05/29 07:24:06;;;;;;;;;;;18.00;61.60;;;;;;5055666;28;19948;-87
2022/05/29 07:26:31;;;;;;;;;;;18.00;62.00;;;;;;5037142;28;20265;-87
2022/05/29 07:28:57;;;;;;;;;;;18.00;61.90;;;;;;5038626;28;19951;-87
2022/05/29 07:31:22;;;;;;;;;;;18.00;61.80;;;;;;5036775;28;19936;-87
2022/05/29 07:33:48;;;;;;;;;;;18.00;62.20;;;;;;5037772;28;20301;-87
2022/05/29 07:36:13;;;;;;;;;;;18.00;62.60;;;;;;5039575;28;19984;-87
2022/05/29 07:38:39;;;;;;;;;;;18.00;62.80;;;;;;5056426;28;19912;-87
2022/05/29 07:43:52;;;;;;;;;;;18.10;63.00;;;;;;5057793;28;19929;-87
2022/05/29 07:46:17;;;;;;;;;;;18.20;63.10;;;;;;5057991;28;19977;-87
2022/05/29 07:48:43;;;;;;;;;;;18.20;62.60;;;;;;5057246;28;19912;-88
2022/05/29 07:51:10;;;;;;;;;;;18.20;62.50;;;;;;5039623;28;19920;-87
2022/05/29 07:53:36;;;;;;;;;;;18.10;62.40;;;;;;5057347;28;20007;-87
2022/05/29 07:56:02;;;;;;;;;;;18.00;62.00;;;;;;5039948;28;19919;-87
2022/05/29 07:58:28;;;;;;;;;;;18.00;61.90;;;;;;5040046;28;19917;-88
2022/05/29 08:00:53;;;;;;;;;;;17.90;62.00;;;;;;5040960;28;20379;-88
2022/05/29 08:03:21;;;;;;;;;;;17.80;62.10;;;;;;5041170;28;20432;-87
2022/05/29 08:05:46;;;;;;;;;;;17.80;62.50;;;;;;5040701;28;19917;-87
2022/05/29 08:08:13;;;;;;;;;;;17.80;62.70;;;;;;5057406;28;19967;-87
2022/05/29 08:10:39;;;;;;;;;;;17.80;62.90;;;;;;5039971;28;19916;-86
2022/05/29 08:13:05;;;;;;;;;;;17.90;63.10;;;;;;5039240;28;19920;-87
2022/05/29 08:15:30;;;;;;;;;;;17.90;63.20;;;;;;5040376;28;19912;-87
2022/05/29 08:17:56;;;;;;;;;;;18.00;63.50;;;;;;5039763;28;19932;-87
2022/05/29 08:20:22;;;;;;;;;;;18.10;63.90;;;;;;5040243;28;19919;-88
2022/05/29 08:22:47;;;;;;;;;;;18.20;63.60;;;;;;5039568;28;19913;-88
2022/05/29 08:30:43;;;;;;;;;;;18.70;64.50;;;;;;5059775;28;20416;-88
2022/05/29 08:33:13;;;;;;;;;;;18.80;64.50;;;;;;5058232;28;19921;-88
2022/05/29 08:35:40;;;;;;;;;;;19.10;64.80;;;;;;5039391;28;20361;-87
2022/05/29 08:38:06;;;;;;;;;;;19.30;64.70;;;;;;5039557;28;19962;-89
2022/05/29 08:40:32;;;;;;;;;;;19.60;64.70;;;;;;5040094;28;19962;-87
2022/05/29 08:42:57;;;;;;;;;;;19.90;64.70;;;;;;5039024;28;20416;-88
2022/05/29 08:45:23;;;;;;;;;;;20.30;64.70;;;;;;5038116;28;20269;-87
2022/05/29 08:47:49;;;;;;;;;;;20.70;64.90;;;;;;5057204;28;20269;-87
2022/05/29 08:50:31;;;;;;;;;;;21.30;64.60;;;;;;5038731;28;20396;-87
2022/05/29 08:53:02;;;;;;;;;;;21.70;63.90;;;;;;5056662;28;19947;-87
2022/05/29 08:55:31;;;;;;;;;;;22.10;63.00;;;;;;5056390;28;19913;-87
2022/05/29 08:58:03;;;;;;;;;;;22.30;62.50;;;;;;5038494;28;19917;-87
2022/05/29 09:00:47;;;;;;;;;;;22.40;61.90;;;;;;5039134;28;19913;-88
2022/05/29 09:03:31;;;;;;;;;;;22.30;60.20;;;;;;5041477;28;20991;-87
2022/05/29 09:06:09;;;;;;;;;;;22.00;60.00;;;;;;5056542;28;19920;-87
2022/05/29 09:08:38;;;;;;;;;;;21.80;59.80;;;;;;5038993;28;19923;-87
2022/05/29 09:11:10;;;;;;;;;;;21.60;59.90;;;;;;5038559;28;20444;-87
2022/05/29 09:13:48;;;;;;;;;;;21.40;60.00;;;;;;5038405;28;20023;-87
2022/05/29 09:16:15;;;;;;;;;;;21.10;59.90;;;;;;5038715;28;19922;-87
2022/05/29 09:18:42;;;;;;;;;;;20.80;60.00;;;;;;5038724;28;20384;-87
2022/05/29 09:21:13;;;;;;;;;;;20.50;59.20;;;;;;5038967;28;19966;-89
2022/05/29 09:23:41;;;;;;;;;;;20.20;60.00;;;;;;5039944;28;20008;-90
2022/05/29 09:26:10;;;;;;;;;;;20.00;60.50;;;;;;5056970;28;19913;-89
2022/05/29 09:28:38;;;;;;;;;;;20.00;61.70;;;;;;5039370;28;19924;-88
2022/05/29 09:31:15;;;;;;;;;;;20.00;62.00;;;;;;5039552;28;19920;-88
2022/05/29 09:33:41;;;;;;;;;;;20.00;62.50;;;;;;5056598;28;19939;-88
2022/05/29 09:36:26;;;;;;;;;;;20.10;62.70;;;;;;5039269;28;19913;-88
2022/05/29 09:38:54;;;;;;;;;;;20.10;63.00;;;;;;5056212;28;20377;-88
2022/05/29 09:44:34;;;;;;;;;;;20.30;63.40;;;;;;5056775;28;19966;-88
2022/05/29 09:50:00;;;;;;;;;;;20.60;63.80;;;;;;5056248;28;19920;-88
2022/05/29 09:52:28;;;;;;;;;;;20.80;63.10;;;;;;5037848;28;20020;-88
2022/05/29 09:55:01;;;;;;;;;;;21.10;63.00;;;;;;5038316;28;19916;-88
2022/05/29 09:57:29;;;;;;;;;;;21.30;62.10;;;;;;5038607;28;19966;-87
2022/05/29 10:00:18;;;;;;;;;;;21.60;62.40;;;;;;5038386;28;19924;-87
2022/05/29 10:02:47;;;;;;;;;;;21.90;62.80;;;;;;5024926;28;20380;-87
2022/05/29 10:05:42;;;;;;;;;;;22.30;62.20;;;;;;5056978;28;19920;-88
2022/05/29 10:08:19;;;;;;;;;;;22.50;62.30;;;;;;5017249;28;20002;-88
2022/05/29 10:10:45;;;;;;;;;;;22.80;61.80;;;;;;5038450;28;20269;-88
2022/05/29 10:13:10;;;;;;;;;;;23.10;61.20;;;;;;5038591;28;19928;-87
2022/05/29 10:15:37;;;;;;;;;;;23.30;61.20;;;;;;5038152;28;19916;-88
2022/05/29 10:18:23;;;;;;;;;;;23.40;61.20;;;;;;5037869;28;19913;-88
2022/05/29 10:20:49;;;;;;;;;;;23.70;60.60;;;;;;5054494;28;19944;-88
2022/05/29 10:23:29;;;;;;;;;;;24.10;60.90;;;;;;5055022;28;19927;-88
2022/05/29 10:25:56;;;;;;;;;;;24.40;60.60;;;;;;5037865;28;20331;-88
2022/05/29 10:28:26;;;;;;;;;;;24.80;60.50;;;;;;5037948;28;19995;-88
2022/05/29 10:30:59;;;;;;;;;;;25.20;60.20;;;;;;5022676;28;19920;-88
2022/05/29 10:33:27;;;;;;;;;;;25.50;59.70;;;;;;5038582;28;19924;-87
2022/05/29 10:36:19;;;;;;;;;;;25.80;58.00;;;;;;5037563;28;20024;-87
2022/05/29 10:38:45;;;;;;;;;;;25.80;56.90;;;;;;5050942;28;19920;-87
2022/05/29 10:41:11;;;;;;;;;;;25.60;56.00;;;;;;5037031;28;19912;-87
2022/05/29 10:43:42;;;;;;;;;;;25.30;53.60;;;;;;5037310;28;19913;-86
2022/05/29 10:46:10;;;;;;;;;;;24.80;53.10;;;;;;5054874;28;19944;-86
2022/05/29 10:48:54;;;;;;;;;;;24.50;55.20;;;;;;5055403;28;19916;-87
2022/05/29 10:51:20;;;;;;;;;;;24.20;54.30;;;;;;5055195;28;19913;-87
2022/05/29 10:54:00;;;;;;;;;;;24.10;56.40;;;;;;5037547;28;20503;-86
2022/05/29 10:56:41;;;;;;;;;;;24.20;57.10;;;;;;5037149;28;19913;-85
2022/05/29 10:59:09;;;;;;;;;;;24.40;58.30;;;;;;5054888;28;20008;-86
2022/05/29 11:04:41;;;;;;;;;;;25.10;58.80;;;;;;5055333;28;19979;-86
2022/05/29 11:07:09;;;;;;;;;;;25.20;58.00;;;;;;5053644;28;19928;-86
2022/05/29 11:09:35;;;;;;;;;;;25.10;58.30;;;;;;5038868;28;19917;-87
2022/05/29 11:12:06;;;;;;;;;;;25.20;58.70;;;;;;5040431;28;19920;-88
2022/05/29 11:14:42;;;;;;;;;;;25.30;58.20;;;;;;5040035;28;20026;-88
2022/05/29 11:17:07;;;;;;;;;;;25.30;57.80;;;;;;5040267;28;19915;-89
2022/05/29 11:19:50;;;;;;;;;;;25.30;54.30;;;;;;5058578;28;19976;-88
2022/05/29 11:22:30;;;;;;;;;;;25.20;52.00;;;;;;5058324;28;20035;-88
2022/05/29 11:25:19;;;;;;;;;;;25.00;51.80;;;;;;5058805;28;19923;-88
2022/05/29 11:27:45;;;;;;;;;;;24.80;52.40;;;;;;5056623;28;19920;-88
2022/05/29 11:30:23;;;;;;;;;;;24.60;54.70;;;;;;5039776;28;19912;-88
2022/05/29 11:32:52;;;;;;;;;;;24.70;55.90;;;;;;5058163;28;19971;-88
2022/05/29 11:35:27;;;;;;;;;;;25.00;57.40;;;;;;5040316;28;19912;-89
2022/05/29 11:38:00;;;;;;;;;;;25.40;57.00;;;;;;5057597;28;19966;-86
2022/05/29 11:40:29;;;;;;;;;;;25.90;56.20;;;;;;5056723;28;19920;-87
2022/05/29 11:43:24;;;;;;;;;;;26.40;55.80;;;;;;5039699;28;19934;-87
2022/05/29 11:52:01;;;;;;;;;;;26.90;51.20;;;;;;5056795;28;19924;-87
2022/05/29 11:54:27;;;;;;;;;;;26.90;49.60;;;;;;5038504;28;19917;-87
2022/05/29 11:57:00;;;;;;;;;;;26.90;49.50;;;;;;5057199;28;19924;-86
2022/05/29 11:59:34;;;;;;;;;;;26.80;48.10;;;;;;5040036;28;20063;-87
2022/05/29 12:02:18;;;;;;;;;;;26.70;46.20;;;;;;5039988;28;19956;-87
2022/05/29 12:04:56;;;;;;;;;;;26.60;45.10;;;;;;5040669;28;19915;-87
2022/05/29 12:07:23;;;;;;;;;;;26.60;45.80;;;;;;5040040;28;19963;-88
2022/05/29 12:09:56;;;;;;;;;;;26.60;44.40;;;;;;5057731;28;20015;-87
2022/05/29 12:12:27;;;;;;;;;;;26.40;41.40;;;;;;5039898;28;20008;-87
2022/05/29 12:14:56;;;;;;;;;;;26.30;41.00;;;;;;5058478;28;19920;-88
2022/05/29 12:17:29;;;;;;;;;;;26.20;41.10;;;;;;5039617;28;19925;-88
2022/05/29 12:20:00;;;;;;;;;;;26.00;42.00;;;;;;5057717;28;19917;-86
2022/05/29 12:22:27;;;;;;;;;;;25.80;42.50;;;;;;5057329;28;20280;-88
2022/05/29 12:24:55;;;;;;;;;;;25.80;41.80;;;;;;5059399;28;20308;-87
2022/05/29 12:27:22;;;;;;;;;;;25.70;41.30;;;;;;5057230;28;19915;-88
2022/05/29 12:29:57;;;;;;;;;;;25.50;40.50;;;;;;5058422;28;20357;-89
2022/05/29 12:32:24;;;;;;;;;;;25.30;41.10;;;;;;5039109;28;19913;-87
2022/05/29 12:34:50;;;;;;;;;;;25.20;40.80;;;;;;5057361;28;19920;-88
2022/05/29 12:37:19;;;;;;;;;;;25.20;41.90;;;;;;5057136;28;19959;-88
2022/05/29 12:39:56;;;;;;;;;;;25.20;42.70;;;;;;5039235;28;19913;-87
2022/05/29 12:42:25;;;;;;;;;;;25.10;43.10;;;;;;5038167;28;19909;-88
2022/05/29 12:44:50;;;;;;;;;;;25.10;45.30;;;;;;5019824;28;19968;-87
2022/05/29 12:47:30;;;;;;;;;;;25.10;45.90;;;;;;5019262;28;19916;-87
2022/05/29 12:50:02;;;;;;;;;;;25.10;45.50;;;;;;5037629;28;19971;-88
2022/05/29 12:52:40;;;;;;;;;;;25.20;45.00;;;;;;5019380;28;20012;-88
2022/05/29 12:55:16;;;;;;;;;;;25.10;44.10;;;;;;5038340;28;19975;-88
2022/05/29 12:58:00;;;;;;;;;;;25.00;42.90;;;;;;5036010;28;19995;-87
2022/05/29 13:00:55;;;;;;;;;;;25.00;43.20;;;;;;5037151;28;20440;-87
2022/05/29 13:03:31;;;;;;;;;;;25.00;42.60;;;;;;5036017;28;19913;-87
2022/05/29 13:06:00;;;;;;;;;;;24.80;39.60;;;;;;5036185;28;20349;-87
2022/05/29 13:08:41;;;;;;;;;;;24.70;39.40;;;;;;5019823;28;19928;-88
2022/05/29 13:11:07;;;;;;;;;;;24.50;41.00;;;;;;5035859;28;19966;-88
2022/05/29 13:13:46;;;;;;;;;;;24.60;40.90;;;;;;5051153;28;19932;-87
2022/05/29 13:16:26;;;;;;;;;;;24.60;41.40;;;;;;5040006;28;20050;-87
2022/05/29 13:19:17;;;;;;;;;;;24.60;40.30;;;;;;5039273;28;19956;-88
2022/05/29 13:21:54;;;;;;;;;;;24.50;41.20;;;;;;5056531;28;20277;-87
2022/05/29 13:24:21;;;;;;;;;;;24.40;40.70;;;;;;5056495;28;20276;-88
2022/05/29 13:27:07;;;;;;;;;;;24.40;41.60;;;;;;5056776;28;19913;-88
2022/05/29 13:29:46;;;;;;;;;;;24.60;42.20;;;;;;5038530;28;19924;-87
2022/05/29 13:32:14;;;;;;;;;;;24.60;42.20;;;;;;5055454;28;19917;-88
2022/05/29 13:34:43;;;;;;;;;;;24.70;41.70;;;;;;5039229;28;19921;-87
2022/05/29 13:37:20;;;;;;;;;;;24.80;42.50;;;;;;5056848;28;19913;-88
2022/05/29 13:39:53;;;;;;;;;;;25.00;42.00;;;;;;5039881;28;19931;-89
2022/05/29 13:42:24;;;;;;;;;;;25.10;41.30;;;;;;5042581;28;19916;-87
2022/05/29 13:44:53;;;;;;;;;;;25.00;42.20;;;;;;5062755;28;19925;-89
2022/05/29 13:47:19;;;;;;;;;;;24.70;41.50;;;;;;5057448;28;19909;-88
2022/05/29 13:49:50;;;;;;;;;;;24.30;41.50;;;;;;5052855;28;20395;-88
2022/05/29 13:52:20;;;;;;;;;;;23.70;42.00;;;;;;5049124;28;19974;-87
2022/05/29 13:55:04;;;;;;;;;;;23.20;43.10;;;;;;5057218;28;19921;-88
2022/05/29 14:06:25;;;;;;;;;;;22.90;45.20;;;;;;5057611;28;19966;-89
2022/05/29 14:08:55;;;;;;;;;;;23.10;42.70;;;;;;5039142;28;19916;-87
2022/05/29 14:11:40;;;;;;;;;;;23.20;40.80;;;;;;5071591;28;19916;-89
2022/05/29 14:14:27;;;;;;;;;;;23.30;41.60;;;;;;5034232;28;19928;-89
2022/05/29 14:16:53;;;;;;;;;;;23.70;41.80;;;;;;5042236;28;19942;-89
2022/05/29 14:19:25;;;;;;;;;;;23.90;40.70;;;;;;5037320;28;20546;-88
2022/05/29 14:22:03;;;;;;;;;;;24.20;39.30;;;;;;5055693;28;19912;-87
2022/05/29 14:24:31;;;;;;;;;;;24.40;38.00;;;;;;5045132;28;19920;-88
2022/05/29 14:27:19;;;;;;;;;;;24.60;37.70;;;;;;5047693;28;19917;-87
2022/05/29 14:29:57;;;;;;;;;;;24.80;37.70;;;;;;5051362;28;19917;-87
2022/05/29 14:32:42;;;;;;;;;;;25.10;37.50;;;;;;5037037;28;19921;-88
2022/05/29 14:35:16;;;;;;;;;;;25.20;36.80;;;;;;5038503;28;19973;-87
2022/05/29 14:37:51;;;;;;;;;;;25.30;34.60;;;;;;5042162;28;19924;-87
2022/05/29 14:40:35;;;;;;;;;;;25.20;35.20;;;;;;5048195;28;19921;-90
2022/05/29 14:43:20;;;;;;;;;;;25.30;36.40;;;;;;5030390;28;19913;-89
2022/05/29 14:46:18;;;;;;;;;;;25.50;35.20;;;;;;5047852;28;19956;-90
2022/05/29 14:48:55;;;;;;;;;;;25.60;34.70;;;;;;5046365;28;19975;-89
2022/05/29 14:51:34;;;;;;;;;;;25.70;34.60;;;;;;5057644;28;19917;-89
2022/05/29 14:54:02;;;;;;;;;;;25.80;34.10;;;;;;5059569;28;19921;-89
2022/05/29 14:56:33;;;;;;;;;;;25.90;34.60;;;;;;5060567;28;19913;-89
2022/05/29 14:59:16;;;;;;;;;;;26.00;35.10;;;;;;5078177;28;19917;-88
2022/05/29 15:01:41;;;;;;;;;;;26.00;34.80;;;;;;5077907;28;19924;-88
2022/05/29 15:04:07;;;;;;;;;;;26.00;34.00;;;;;;5060849;28;19912;-89
2022/05/29 15:12:24;;;;;;;;;;;24.80;32.20;;;;;;5078207;28;19928;-89
2022/05/29 15:15:09;;;;;;;;;;;24.20;33.60;;;;;;5068439;28;19924;-88
2022/05/29 15:17:35;;;;;;;;;;;23.80;34.50;;;;;;5041839;28;19939;-88
2022/05/29 15:25:35;;;;;;;;;;;23.10;36.50;;;;;;5059316;28;19920;-87
2022/05/29 15:28:06;;;;;;;;;;;22.90;37.20;;;;;;5058284;28;19913;-89
2022/05/29 15:30:31;;;;;;;;;;;22.80;37.50;;;;;;5040289;28;20276;-89
2022/05/29 15:33:03;;;;;;;;;;;22.60;37.60;;;;;;5039735;28;19927;-88